Time;durP1;ratioP1;P1;durP2;ratioP2;P2;SDS_P1;SDS_P2;PMS_P1;PMS_P2;Temp;Humidity;BMP_temperature;BMP_pressure;BME280_temperature;BME280_humidity;BME280_pressure;Samples;Min_cycle;Max_cycle;Signal;HPM_P1;HPM_P2
2023/07/11 00:16:44;;;;;;;7.23;4.23;;;17.50;99.90;;;;;;4626762;30;20245;-85
2023/07/11 00:41:44;;;;;;;6.90;4.63;;;17.00;99.90;;;;;;4678587;29;20639;-80
2023/07/11 01:02:14;;;;;;;5.77;4.37;;;16.40;99.90;;;;;;4634555;30;20291;-80
2023/07/11 01:27:37;;;;;;;6.03;4.03;;;16.20;99.90;;;;;;4651534;29;20256;-84
2023/07/11 01:52:56;;;;;;;5.13;4.53;;;15.70;99.90;;;;;;4670355;29;20207;-80
2023/07/11 02:18:23;;;;;;;4.00;3.63;;;16.20;99.90;;;;;;4707584;29;20497;-83
2023/07/11 02:43:48;;;;;;;4.07;3.67;;;16.20;99.90;;;;;;4694328;29;20467;-83
2023/07/11 03:13:45;;;;;;;5.43;4.13;;;16.40;99.90;;;;;;4743543;29;20219;-84
2023/07/11 03:34:13;;;;;;;3.90;3.50;;;16.90;99.90;;;;;;4743913;29;20386;-82
2023/07/11 03:54:28;;;;;;;4.47;3.93;;;16.80;99.90;;;;;;4792143;28;21197;-81
2023/07/11 04:20:14;;;;;;;5.23;4.47;;;16.80;99.90;;;;;;4652549;29;20401;-83
2023/07/11 04:40:09;;;;;;;6.37;4.30;;;16.90;99.90;;;;;;4541777;30;20223;-83
2023/07/11 05:26:09;;;;;;;5.30;3.80;;;17.50;99.90;;;;;;4714730;29;20228;-81
2023/07/11 06:11:10;;;;;;;3.00;2.73;;;18.60;99.90;;;;;;4539972;29;20611;-81
2023/07/11 06:31:31;;;;;;;3.90;3.27;;;19.50;95.50;;;;;;4619566;29;20550;-81
2023/07/11 06:57:20;;;;;;;4.07;2.50;;;19.70;92.20;;;;;;4648557;29;20585;-85
2023/07/11 07:27:57;;;;;;;4.77;3.20;;;19.80;94.30;;;;;;4738598;29;20589;-83
2023/07/11 08:03:29;;;;;;;5.27;2.70;;;19.50;94.10;;;;;;4679778;29;21605;-84
2023/07/11 08:28:37;;;;;;;3.43;3.03;;;20.20;90.60;;;;;;4784969;28;20275;-86
2023/07/11 08:48:58;;;;;;;2.60;2.37;;;20.50;89.20;;;;;;4628523;29;20482;-85
2023/07/11 09:55:01;;;;;;;2.45;2.08;;;22.10;80.90;;;;;;4664576;29;20301;-84
2023/07/11 10:30:32;;;;;;;2.17;2.00;;;22.40;75.30;;;;;;4667885;29;20213;-85
2023/07/11 11:05:43;;;;;;;2.72;2.22;;;22.50;77.80;;;;;;4626158;29;20780;-83
2023/07/11 11:41:04;;;;;;;2.22;2.13;;;24.90;61.00;;;;;;4693949;29;20643;-86
2023/07/11 12:07:01;;;;;;;2.15;1.95;;;25.10;57.50;;;;;;4766485;29;20223;-84
2023/07/11 12:47:13;;;;;;;2.92;2.63;;;25.50;59.60;;;;;;4703664;29;20624;-84
2023/07/11 13:07:44;;;;;;;2.75;2.55;;;26.20;60.30;;;;;;4768421;29;20206;-81
2023/07/11 13:28:23;;;;;;;3.40;3.08;;;28.50;57.30;;;;;;4687522;29;20228;-81
2023/07/11 13:53:50;;;;;;;5.40;3.20;;;27.40;57.10;;;;;;4540465;30;20223;-84
2023/07/11 14:38:52;;;;;;;3.75;3.45;;;26.60;57.30;;;;;;4522897;30;20250;-82
2023/07/11 15:04:51;;;;;;;3.60;3.33;;;31.50;55.50;;;;;;4643645;29;20237;-81
2023/07/11 15:34:41;;;;;;;3.33;3.03;;;31.10;49.30;;;;;;4675878;29;20545;-83
2023/07/11 16:15:15;;;;;;;3.42;3.13;;;29.10;49.80;;;;;;4589807;30;20558;-83
2023/07/11 16:35:36;;;;;;;3.08;2.83;;;25.60;50.70;;;;;;4686589;29;21108;-83
2023/07/11 16:51:26;;;;;;;4.25;3.10;;;26.00;50.50;;;;;;4771160;29;20265;-83
2023/07/11 17:21:12;;;;;;;3.20;2.65;;;25.70;51.60;;;;;;4683955;29;20526;-83
2023/07/11 17:42:00;;;;;;;3.17;2.88;;;25.00;50.50;;;;;;4748432;29;20563;-83
2023/07/11 18:02:23;;;;;;;3.05;2.75;;;24.30;52.00;;;;;;4620671;30;20219;-84
2023/07/11 18:27:50;;;;;;;3.25;2.80;;;22.90;73.10;;;;;;4720025;29;20220;-85
2023/07/11 18:32:20;;;;;;;5.18;3.10;;;22.80;79.80;;;;;;4767605;29;20593;-84
2023/07/11 19:28:33;;;;;;;6.23;3.67;;;19.70;94.20;;;;;;4805513;29;20226;-82
2023/07/11 20:03:58;;;;;;;6.13;4.30;;;19.20;98.80;;;;;;4822907;28;20684;-85
2023/07/11 20:29:23;;;;;;;6.77;5.30;;;18.90;99.90;;;;;;4751794;29;20357;-84
2023/07/11 20:54:35;;;;;;;7.63;5.23;;;18.30;99.90;;;;;;4689503;29;20303;-82
2023/07/11 21:19:56;;;;;;;6.43;5.73;;;17.80;99.90;;;;;;4644709;30;20279;-83
2023/07/11 21:40:02;;;;;;;9.03;5.83;;;17.40;99.90;;;;;;4609297;30;20639;-84
2023/07/11 22:05:42;;;;;;;6.97;6.33;;;17.10;99.90;;;;;;4757569;29;20197;-84
2023/07/11 22:45:43;;;;;;;8.40;7.57;;;16.50;99.90;;;;;;4821025;28;20658;-82
2023/07/11 23:06:30;;;;;;;8.87;7.97;;;16.30;99.90;;;;;;4701045;29;20420;-82
